Time;durP1;ratioP1;P1;durP2;ratioP2;P2;SDS_P1;SDS_P2;PMS_P1;PMS_P2;Temp;Humidity;BMP_temperature;BMP_pressure;BME280_temperature;BME280_humidity;BME280_pressure;Samples;Min_cycle;Max_cycle;Signal;HPM_P1;HPM_P2
2021/12/26 00:02:24;;;;;;;2.40;2.20;;;;;;;;;;5031468;28;20426;-91
2021/12/26 00:04:50;;;;;;;1.90;1.80;;;;;;;;;;5032810;28;20456;-91
2021/12/26 00:07:16;;;;;;;1.90;1.80;;;;;;;;;;5031379;28;20932;-91
2021/12/26 00:09:42;;;;;;;1.40;1.30;;;;;;;;;;5032679;28;20442;-91
2021/12/26 00:12:08;;;;;;;1.30;1.20;;;;;;;;;;5025245;28;20479;-91
2021/12/26 00:14:34;;;;;;;1.60;1.50;;;;;;;;;;5035967;28;20524;-90
2021/12/26 00:17:00;;;;;;;1.60;1.50;;;;;;;;;;5037574;28;21017;-91
2021/12/26 00:19:26;;;;;;;1.77;1.67;;;;;;;;;;5031367;28;20509;-90
2021/12/26 00:21:52;;;;;;;1.40;1.30;;;;;;;;;;5035298;28;20489;-91
2021/12/26 00:24:19;;;;;;;1.60;1.50;;;;;;;;;;5030642;28;20472;-91
2021/12/26 00:26:45;;;;;;;1.50;1.40;;;;;;;;;;5031451;28;20500;-90
2021/12/26 00:29:11;;;;;;;1.40;1.30;;;;;;;;;;5032489;28;20422;-91
2021/12/26 00:31:37;;;;;;;1.63;1.53;;;;;;;;;;5032257;28;20477;-90
2021/12/26 00:34:03;;;;;;;1.67;1.57;;;;;;;;;;5032275;28;20434;-91
2021/12/26 00:36:29;;;;;;;1.53;1.43;;;;;;;;;;5014044;28;20489;-91
2021/12/26 00:38:55;;;;;;;1.33;1.23;;;;;;;;;;5025675;28;20434;-91
2021/12/26 00:41:21;;;;;;;1.50;1.40;;;;;;;;;;5018676;28;20438;-89
2021/12/26 00:43:47;;;;;;;1.40;1.30;;;;;;;;;;5031626;28;20434;-90
2021/12/26 00:46:13;;;;;;;2.13;2.03;;;;;;;;;;5024878;28;20434;-90
2021/12/26 00:48:39;;;;;;;1.67;1.57;;;;;;;;;;5029059;28;20957;-91
2021/12/26 00:51:06;;;;;;;1.43;1.33;;;;;;;;;;5031404;28;20481;-90
2021/12/26 00:53:33;;;;;;;1.30;1.20;;;;;;;;;;5029504;28;20933;-90
2021/12/26 00:55:59;;;;;;;1.30;1.20;;;;;;;;;;5030324;28;20454;-91
2021/12/26 00:58:25;;;;;;;1.70;1.60;;;;;;;;;;5029604;28;20438;-90
2021/12/26 01:00:51;;;;;;;1.30;1.20;;;;;;;;;;5031850;28;20438;-91
2021/12/26 01:03:18;;;;;;;1.37;1.27;;;;;;;;;;5031510;28;20414;-90
2021/12/26 01:05:48;;;;;;;1.30;1.20;;;;;;;;;;5031534;28;20450;-89
2021/12/26 01:08:15;;;;;;;1.50;1.40;;;;;;;;;;5026392;28;20934;-90
2021/12/26 01:10:49;;;;;;;1.30;1.20;;;;;;;;;;5027448;28;20986;-90
2021/12/26 01:13:21;;;;;;;1.57;1.47;;;;;;;;;;5029508;28;20496;-90
2021/12/26 01:15:48;;;;;;;1.27;1.17;;;;;;;;;;5035597;28;20727;-90
2021/12/26 01:18:16;;;;;;;1.40;1.30;;;;;;;;;;5041896;28;20442;-91
2021/12/26 01:23:08;;;;;;;1.50;1.40;;;;;;;;;;5031288;28;20544;-91
2021/12/26 01:25:34;;;;;;;1.40;1.30;;;;;;;;;;5031226;28;20438;-90
2021/12/26 01:28:00;;;;;;;1.47;1.37;;;;;;;;;;5029984;28;20478;-91
2021/12/26 01:30:26;;;;;;;1.27;1.17;;;;;;;;;;5020145;28;20481;-91
2021/12/26 01:32:52;;;;;;;1.70;1.60;;;;;;;;;;5035957;28;20997;-91
2021/12/26 01:35:18;;;;;;;1.63;1.53;;;;;;;;;;5032497;28;20929;-91
2021/12/26 01:37:44;;;;;;;2.03;1.93;;;;;;;;;;5022310;28;20442;-90
2021/12/26 01:40:10;;;;;;;1.33;1.23;;;;;;;;;;5030517;28;20425;-90
2021/12/26 01:42:36;;;;;;;1.40;1.30;;;;;;;;;;5032644;28;20444;-91
2021/12/26 01:45:06;;;;;;;1.23;1.13;;;;;;;;;;5024322;28;20441;-91
2021/12/26 01:47:32;;;;;;;1.47;1.37;;;;;;;;;;5021711;28;20533;-91
2021/12/26 01:49:58;;;;;;;1.33;1.23;;;;;;;;;;5030524;28;20521;-91
2021/12/26 01:52:24;;;;;;;1.50;1.40;;;;;;;;;;5026603;28;20521;-90
2021/12/26 01:55:00;;;;;;;1.57;1.47;;;;;;;;;;5029697;28;21026;-91
2021/12/26 01:57:26;;;;;;;1.70;1.60;;;;;;;;;;5030157;28;20433;-90
2021/12/26 01:59:52;;;;;;;3.43;3.23;;;;;;;;;;5022788;28;20443;-90
2021/12/26 02:02:18;;;;;;;1.60;1.50;;;;;;;;;;5036301;28;20440;-90
2021/12/26 02:04:44;;;;;;;1.50;1.40;;;;;;;;;;5029636;28;20429;-90
2021/12/26 02:07:12;;;;;;;1.37;1.27;;;;;;;;;;5031338;28;20466;-90
2021/12/26 02:09:38;;;;;;;4.60;2.47;;;;;;;;;;5030474;28;20565;-90
2021/12/26 02:12:04;;;;;;;1.63;1.53;;;;;;;;;;5020527;28;20479;-90
2021/12/26 02:14:30;;;;;;;1.90;1.80;;;;;;;;;;5027881;28;20434;-90
2021/12/26 02:16:57;;;;;;;1.67;1.57;;;;;;;;;;5024148;28;20461;-89
2021/12/26 02:19:23;;;;;;;1.60;1.50;;;;;;;;;;5034793;28;20434;-89
2021/12/26 02:24:24;;;;;;;2.60;2.50;;;;;;;;;;5034418;28;20438;-90
2021/12/26 02:29:35;;;;;;;1.60;1.50;;;;;;;;;;5034057;28;20421;-90
2021/12/26 02:32:01;;;;;;;4.47;4.23;;;;;;;;;;5035312;28;20492;-90
2021/12/26 02:34:27;;;;;;;2.10;2.00;;;;;;;;;;5028692;28;20453;-89
2021/12/26 02:36:54;;;;;;;1.20;1.10;;;;;;;;;;5034364;28;20425;-90
2021/12/26 02:39:19;;;;;;;1.50;1.40;;;;;;;;;;5034659;28;20437;-89
2021/12/26 02:41:46;;;;;;;1.80;1.70;;;;;;;;;;5020403;28;20526;-89
2021/12/26 02:44:12;;;;;;;2.13;2.03;;;;;;;;;;5040584;28;20442;-89
2021/12/26 02:46:40;;;;;;;2.00;1.90;;;;;;;;;;5034112;28;20935;-89
2021/12/26 02:49:06;;;;;;;2.20;2.10;;;;;;;;;;5032572;28;21000;-89
2021/12/26 02:51:32;;;;;;;1.43;1.33;;;;;;;;;;5031826;28;20474;-91
2021/12/26 02:53:58;;;;;;;1.50;1.40;;;;;;;;;;5036641;28;20525;-90
2021/12/26 02:56:24;;;;;;;1.83;1.73;;;;;;;;;;5024373;28;20471;-90
2021/12/26 02:58:50;;;;;;;3.53;3.33;;;;;;;;;;5028069;28;20869;-90
2021/12/26 03:01:18;;;;;;;1.60;1.50;;;;;;;;;;5021100;28;20525;-90
2021/12/26 03:03:44;;;;;;;2.40;2.30;;;;;;;;;;5040013;28;20425;-89
2021/12/26 03:06:20;;;;;;;1.30;1.20;;;;;;;;;;5033471;28;20442;-89
2021/12/26 03:08:47;;;;;;;2.10;2.00;;;;;;;;;;5031225;28;20544;-89
2021/12/26 03:11:13;;;;;;;1.60;1.50;;;;;;;;;;5019762;28;20464;-90
2021/12/26 03:13:40;;;;;;;1.60;1.50;;;;;;;;;;5032740;28;20438;-89
2021/12/26 03:16:05;;;;;;;1.50;1.40;;;;;;;;;;5033069;28;20902;-90
2021/12/26 03:18:31;;;;;;;1.43;1.33;;;;;;;;;;5031892;28;20499;-89
2021/12/26 03:20:57;;;;;;;1.43;1.33;;;;;;;;;;5033560;28;20865;-88
2021/12/26 03:23:25;;;;;;;1.50;1.40;;;;;;;;;;5033781;28;20442;-89
2021/12/26 03:25:54;;;;;;;1.93;1.83;;;;;;;;;;5027601;28;20489;-90
2021/12/26 03:28:21;;;;;;;1.67;1.57;;;;;;;;;;5023852;28;20467;-89
2021/12/26 03:30:47;;;;;;;1.57;1.47;;;;;;;;;;5033169;28;20476;-90
2021/12/26 03:33:13;;;;;;;1.83;1.73;;;;;;;;;;5032962;28;20438;-89
2021/12/26 03:35:40;;;;;;;1.70;1.60;;;;;;;;;;5032206;28;20436;-89
2021/12/26 03:38:06;;;;;;;1.77;1.67;;;;;;;;;;5033330;28;20439;-90
2021/12/26 03:40:32;;;;;;;1.50;1.40;;;;;;;;;;5031409;28;20422;-87
2021/12/26 03:42:58;;;;;;;1.50;1.40;;;;;;;;;;5027780;28;20448;-89
2021/12/26 03:45:24;;;;;;;1.50;1.40;;;;;;;;;;5032469;28;20499;-90
2021/12/26 03:47:50;;;;;;;1.63;1.53;;;;;;;;;;5032764;28;20434;-89
2021/12/26 03:50:18;;;;;;;1.70;1.60;;;;;;;;;;5031462;28;20495;-89
2021/12/26 03:52:44;;;;;;;1.43;1.33;;;;;;;;;;5032733;28;20486;-89
2021/12/26 03:55:10;;;;;;;1.80;1.70;;;;;;;;;;5033189;28;20414;-92
2021/12/26 03:57:36;;;;;;;1.97;1.87;;;;;;;;;;5031455;28;20434;-90
2021/12/26 04:00:03;;;;;;;1.77;1.67;;;;;;;;;;5030997;28;20473;-90
2021/12/26 04:02:29;;;;;;;1.83;1.73;;;;;;;;;;5021518;28;20426;-90
2021/12/26 04:04:55;;;;;;;1.80;1.70;;;;;;;;;;5031890;28;20802;-90
2021/12/26 04:07:21;;;;;;;1.37;1.27;;;;;;;;;;5031570;28;20438;-90
2021/12/26 04:09:47;;;;;;;1.63;1.53;;;;;;;;;;5032892;28;20422;-90
2021/12/26 04:12:13;;;;;;;1.87;1.77;;;;;;;;;;5031084;28;20551;-90
2021/12/26 04:14:39;;;;;;;1.50;1.40;;;;;;;;;;5030065;28;20426;-90
2021/12/26 04:17:05;;;;;;;1.70;1.60;;;;;;;;;;5030443;28;20449;-90
2021/12/26 04:19:30;;;;;;;1.47;1.37;;;;;;;;;;5026256;28;20433;-89
2021/12/26 04:21:56;;;;;;;1.50;1.40;;;;;;;;;;5029418;28;21047;-89
2021/12/26 04:24:22;;;;;;;1.70;1.60;;;;;;;;;;5030283;28;20434;-90
2021/12/26 04:26:49;;;;;;;1.67;1.57;;;;;;;;;;5032205;28;20510;-90
2021/12/26 04:29:15;;;;;;;1.43;1.33;;;;;;;;;;5029892;28;20437;-89
2021/12/26 04:31:40;;;;;;;1.50;1.40;;;;;;;;;;5032168;28;20469;-89
2021/12/26 04:34:07;;;;;;;1.87;1.77;;;;;;;;;;5026412;28;20534;-88
2021/12/26 04:36:33;;;;;;;1.40;1.30;;;;;;;;;;5031393;28;20914;-89
2021/12/26 04:38:59;;;;;;;1.50;1.40;;;;;;;;;;5031387;28;20438;-89
2021/12/26 04:41:25;;;;;;;1.20;1.10;;;;;;;;;;5031934;28;20438;-89
2021/12/26 04:43:51;;;;;;;2.80;2.60;;;;;;;;;;5032382;28;20422;-89
2021/12/26 04:46:17;;;;;;;1.87;1.77;;;;;;;;;;5032258;28;20512;-89
2021/12/26 04:48:44;;;;;;;1.97;1.87;;;;;;;;;;5026933;28;20447;-89
2021/12/26 04:51:11;;;;;;;1.57;1.47;;;;;;;;;;5031172;28;20458;-89
2021/12/26 04:53:37;;;;;;;2.13;2.03;;;;;;;;;;5029535;28;20492;-90
2021/12/26 04:56:04;;;;;;;1.30;1.20;;;;;;;;;;5031693;28;20836;-90
2021/12/26 04:58:30;;;;;;;1.57;1.47;;;;;;;;;;5027490;28;20435;-90
2021/12/26 05:00:56;;;;;;;1.37;1.27;;;;;;;;;;5031427;28;20957;-90
2021/12/26 05:03:22;;;;;;;1.50;1.40;;;;;;;;;;5040268;28;20434;-89
2021/12/26 05:05:48;;;;;;;1.87;1.77;;;;;;;;;;5030749;28;20426;-90
2021/12/26 05:08:14;;;;;;;1.87;1.77;;;;;;;;;;5031230;28;20430;-90
2021/12/26 05:10:41;;;;;;;4.87;4.67;;;;;;;;;;5031493;28;20418;-89
2021/12/26 05:13:07;;;;;;;1.40;1.30;;;;;;;;;;5030134;28;20922;-89
2021/12/26 05:15:34;;;;;;;1.80;1.70;;;;;;;;;;5040878;28;20432;-89
2021/12/26 05:18:00;;;;;;;1.40;1.30;;;;;;;;;;5029124;28;20547;-89
2021/12/26 05:20:26;;;;;;;1.53;1.43;;;;;;;;;;5029607;28;20539;-88
2021/12/26 05:22:53;;;;;;;1.30;1.20;;;;;;;;;;5030196;28;20434;-88
2021/12/26 05:25:20;;;;;;;3.73;2.97;;;;;;;;;;5031065;28;20458;-89
2021/12/26 05:27:46;;;;;;;2.60;2.50;;;;;;;;;;5030663;28;20442;-89
2021/12/26 05:30:13;;;;;;;1.60;1.50;;;;;;;;;;5019414;28;20427;-89
2021/12/26 05:32:40;;;;;;;1.60;1.50;;;;;;;;;;5026473;28;20562;-89
2021/12/26 05:35:06;;;;;;;1.70;1.60;;;;;;;;;;5030705;28;20434;-90
2021/12/26 05:37:32;;;;;;;1.43;1.33;;;;;;;;;;5025500;28;20521;-89
2021/12/26 05:40:00;;;;;;;1.70;1.60;;;;;;;;;;5023606;28;20518;-88
2021/12/26 05:42:26;;;;;;;1.80;1.70;;;;;;;;;;5030839;28;20434;-88
2021/12/26 05:44:52;;;;;;;1.70;1.60;;;;;;;;;;5031128;28;20484;-88
2021/12/26 05:47:18;;;;;;;1.30;1.20;;;;;;;;;;5030509;28;20521;-89
2021/12/26 05:49:44;;;;;;;2.20;2.10;;;;;;;;;;5042137;28;20468;-89
2021/12/26 05:52:10;;;;;;;1.77;1.67;;;;;;;;;;5029719;28;20518;-87
2021/12/26 05:54:36;;;;;;;2.57;2.47;;;;;;;;;;5028758;28;20437;-88
2021/12/26 05:57:03;;;;;;;1.67;1.57;;;;;;;;;;5017174;28;20497;-89
2021/12/26 05:59:29;;;;;;;1.20;1.10;;;;;;;;;;5027892;28;20423;-87
2021/12/26 06:01:55;;;;;;;1.97;1.87;;;;;;;;;;5020591;28;20444;-89
2021/12/26 06:04:21;;;;;;;1.43;1.33;;;;;;;;;;5023590;28;20426;-88
2021/12/26 06:06:47;;;;;;;1.73;1.63;;;;;;;;;;5020736;28;20506;-91
2021/12/26 06:09:13;;;;;;;1.60;1.50;;;;;;;;;;5030323;28;20891;-90
2021/12/26 06:11:39;;;;;;;1.67;1.57;;;;;;;;;;5024427;28;20496;-90
2021/12/26 06:14:05;;;;;;;1.40;1.30;;;;;;;;;;5028129;28;20806;-91
2021/12/26 06:16:31;;;;;;;1.57;1.47;;;;;;;;;;5021166;28;20469;-90
2021/12/26 06:18:57;;;;;;;1.40;1.30;;;;;;;;;;5029398;28;20641;-91
2021/12/26 06:21:23;;;;;;;1.77;1.67;;;;;;;;;;5024851;28;20469;-89
2021/12/26 06:23:52;;;;;;;1.60;1.50;;;;;;;;;;5028794;28;20433;-89
2021/12/26 06:26:19;;;;;;;1.70;1.60;;;;;;;;;;5029082;28;20418;-88
2021/12/26 06:28:45;;;;;;;2.40;2.30;;;;;;;;;;5029350;28;20442;-90
2021/12/26 06:31:11;;;;;;;1.67;1.57;;;;;;;;;;5028808;28;20462;-90
2021/12/26 06:33:37;;;;;;;1.20;1.10;;;;;;;;;;5028114;28;20453;-89
2021/12/26 06:36:03;;;;;;;1.73;1.63;;;;;;;;;;5028627;28;20434;-89
2021/12/26 06:38:31;;;;;;;1.40;1.30;;;;;;;;;;5027511;28;20435;-88
2021/12/26 06:40:57;;;;;;;1.90;1.80;;;;;;;;;;5024719;28;20517;-89
2021/12/26 06:43:23;;;;;;;2.00;1.90;;;;;;;;;;5029007;28;20544;-89
2021/12/26 06:45:49;;;;;;;3.60;3.30;;;;;;;;;;5029988;28;20437;-89
2021/12/26 06:48:15;;;;;;;1.60;1.50;;;;;;;;;;5029872;28;20431;-91
2021/12/26 06:50:44;;;;;;;1.87;1.77;;;;;;;;;;5028158;28;20461;-89
2021/12/26 06:53:11;;;;;;;1.20;1.10;;;;;;;;;;5024944;28;20447;-89
2021/12/26 06:55:37;;;;;;;1.63;1.53;;;;;;;;;;5027007;28;20491;-89
2021/12/26 06:58:03;;;;;;;1.87;1.77;;;;;;;;;;5029122;28;20445;-90
2021/12/26 07:00:29;;;;;;;1.43;1.33;;;;;;;;;;5029620;28;20433;-89
2021/12/26 07:02:55;;;;;;;1.37;1.27;;;;;;;;;;5031851;28;20434;-90
2021/12/26 07:05:21;;;;;;;1.40;1.30;;;;;;;;;;5033390;28;20442;-88
2021/12/26 07:07:47;;;;;;;1.60;1.50;;;;;;;;;;5033007;28;20438;-88
2021/12/26 07:10:14;;;;;;;1.53;1.43;;;;;;;;;;5033307;28;20918;-89
2021/12/26 07:12:40;;;;;;;1.53;1.43;;;;;;;;;;5027731;28;20484;-89
2021/12/26 07:15:07;;;;;;;1.30;1.20;;;;;;;;;;5023441;28;20819;-88
2021/12/26 07:17:33;;;;;;;1.77;1.67;;;;;;;;;;5019203;28;20427;-88
2021/12/26 07:19:59;;;;;;;2.23;2.13;;;;;;;;;;5028321;28;20473;-89
2021/12/26 07:22:25;;;;;;;1.70;1.60;;;;;;;;;;5031590;28;20543;-89
2021/12/26 07:24:51;;;;;;;1.80;1.70;;;;;;;;;;5033815;28;20488;-89
2021/12/26 07:27:17;;;;;;;1.60;1.50;;;;;;;;;;5030362;28;20430;-88
2021/12/26 07:29:43;;;;;;;2.37;2.27;;;;;;;;;;5026066;28;20525;-88
2021/12/26 07:32:10;;;;;;;1.50;1.40;;;;;;;;;;5031509;28;20481;-89
2021/12/26 07:34:36;;;;;;;2.93;2.83;;;;;;;;;;5030058;28;20461;-89
2021/12/26 07:37:03;;;;;;;1.43;1.33;;;;;;;;;;5037370;28;20448;-88
2021/12/26 07:39:29;;;;;;;5.30;5.10;;;;;;;;;;5030624;28;20426;-90
2021/12/26 07:41:56;;;;;;;1.93;1.83;;;;;;;;;;5030382;28;20474;-88
2021/12/26 07:44:22;;;;;;;1.70;1.60;;;;;;;;;;5031757;28;20517;-87
2021/12/26 07:46:49;;;;;;;1.57;1.47;;;;;;;;;;5030189;28;20441;-89
2021/12/26 07:49:15;;;;;;;2.07;1.97;;;;;;;;;;5031943;28;20461;-89
2021/12/26 07:51:41;;;;;;;2.60;2.40;;;;;;;;;;5031371;28;20517;-88
2021/12/26 07:54:07;;;;;;;1.50;1.40;;;;;;;;;;5031503;28;20437;-88
2021/12/26 07:56:33;;;;;;;1.43;1.33;;;;;;;;;;5030707;28;20430;-88
2021/12/26 07:58:59;;;;;;;2.20;2.10;;;;;;;;;;5023875;28;20930;-88
2021/12/26 08:01:29;;;;;;;1.77;1.67;;;;;;;;;;5030391;28;20491;-89
2021/12/26 08:03:55;;;;;;;1.40;1.30;;;;;;;;;;5029692;28;20528;-87
2021/12/26 08:06:21;;;;;;;1.70;1.60;;;;;;;;;;5030963;28;20437;-87
2021/12/26 08:08:47;;;;;;;1.60;1.50;;;;;;;;;;5029553;28;20434;-88
2021/12/26 08:11:13;;;;;;;1.70;1.60;;;;;;;;;;5027772;28;20478;-88
2021/12/26 08:13:39;;;;;;;3.77;3.50;;;;;;;;;;5028278;28;20450;-89
2021/12/26 08:16:06;;;;;;;1.50;1.40;;;;;;;;;;5026228;28;20453;-90
2021/12/26 08:18:32;;;;;;;1.83;1.73;;;;;;;;;;5027992;28;20440;-89
2021/12/26 08:20:58;;;;;;;1.70;1.60;;;;;;;;;;5029874;28;20481;-87
2021/12/26 08:23:24;;;;;;;1.70;1.60;;;;;;;;;;5024043;28;20451;-89
2021/12/26 08:25:49;;;;;;;1.33;1.23;;;;;;;;;;5029859;28;20512;-87
2021/12/26 08:28:16;;;;;;;1.53;1.43;;;;;;;;;;5033184;28;20521;-90
2021/12/26 08:30:42;;;;;;;1.60;1.50;;;;;;;;;;5019976;28;20438;-91
2021/12/26 08:33:08;;;;;;;1.57;1.47;;;;;;;;;;5032291;28;20449;-91
2021/12/26 08:35:35;;;;;;;1.50;1.40;;;;;;;;;;5041407;28;20427;-90
2021/12/26 08:38:01;;;;;;;1.70;1.60;;;;;;;;;;5027925;28;20446;-91
2021/12/26 08:40:27;;;;;;;1.20;1.10;;;;;;;;;;5031245;28;20438;-90
2021/12/26 08:42:53;;;;;;;2.27;2.17;;;;;;;;;;5026366;28;20430;-88
2021/12/26 08:45:19;;;;;;;1.53;1.43;;;;;;;;;;5030401;28;20438;-89
2021/12/26 08:47:46;;;;;;;1.37;1.27;;;;;;;;;;5027503;28;20438;-90
2021/12/26 08:50:12;;;;;;;1.60;1.50;;;;;;;;;;5022568;28;20450;-89
2021/12/26 08:52:39;;;;;;;1.40;1.30;;;;;;;;;;5031400;28;20517;-94
2021/12/26 08:55:06;;;;;;;1.60;1.50;;;;;;;;;;5029721;28;20434;-90
2021/12/26 08:57:32;;;;;;;2.30;2.20;;;;;;;;;;5022708;28;20462;-91
2021/12/26 08:59:58;;;;;;;1.43;1.33;;;;;;;;;;5028550;28;20435;-90
2021/12/26 09:02:26;;;;;;;1.33;1.23;;;;;;;;;;5028611;28;21009;-90
2021/12/26 09:04:52;;;;;;;1.70;1.60;;;;;;;;;;5027906;28;20473;-91
2021/12/26 09:07:18;;;;;;;1.50;1.40;;;;;;;;;;5027910;28;20434;-90
2021/12/26 09:09:46;;;;;;;1.53;1.43;;;;;;;;;;5029341;28;20743;-89
2021/12/26 09:12:12;;;;;;;2.10;2.00;;;;;;;;;;5025890;28;20531;-91
2021/12/26 09:14:38;;;;;;;2.53;2.43;;;;;;;;;;5029845;28;20414;-89
2021/12/26 09:17:04;;;;;;;1.60;1.50;;;;;;;;;;5026397;28;21294;-90
2021/12/26 09:19:30;;;;;;;2.30;2.17;;;;;;;;;;5028562;28;20430;-89
2021/12/26 09:21:57;;;;;;;1.50;1.40;;;;;;;;;;5029013;28;21017;-90
2021/12/26 09:24:23;;;;;;;1.80;1.70;;;;;;;;;;5029411;28;20517;-89
2021/12/26 09:26:50;;;;;;;1.37;1.27;;;;;;;;;;5031105;28;21033;-89
2021/12/26 09:29:16;;;;;;;1.50;1.40;;;;;;;;;;5022751;28;20445;-87
2021/12/26 09:31:43;;;;;;;1.70;1.60;;;;;;;;;;5024540;28;20497;-87
2021/12/26 09:34:09;;;;;;;1.40;1.30;;;;;;;;;;5022064;28;20492;-87
2021/12/26 09:36:35;;;;;;;1.37;1.27;;;;;;;;;;5026425;28;20954;-87
2021/12/26 09:39:01;;;;;;;1.40;1.30;;;;;;;;;;5028645;28;20801;-86
2021/12/26 09:41:27;;;;;;;1.50;1.40;;;;;;;;;;5028133;28;20484;-85
2021/12/26 09:43:53;;;;;;;1.40;1.30;;;;;;;;;;5030018;28;20435;-85
2021/12/26 09:46:19;;;;;;;1.50;1.40;;;;;;;;;;5029026;28;20447;-84
2021/12/26 09:48:45;;;;;;;1.37;1.27;;;;;;;;;;5032403;28;20536;-84
2021/12/26 09:51:12;;;;;;;1.27;1.17;;;;;;;;;;5019648;28;20469;-84
2021/12/26 09:53:39;;;;;;;3.03;2.80;;;;;;;;;;5022420;28;20453;-83
2021/12/26 09:56:06;;;;;;;1.40;1.30;;;;;;;;;;5025938;28;20446;-85
2021/12/26 09:58:33;;;;;;;1.20;1.10;;;;;;;;;;5024965;28;20511;-84
2021/12/26 10:00:59;;;;;;;0.90;0.90;;;;;;;;;;5024393;28;20434;-84
2021/12/26 10:03:30;;;;;;;1.57;1.47;;;;;;;;;;5024952;28;20454;-83
2021/12/26 10:06:12;;;;;;;1.53;1.43;;;;;;;;;;5025386;28;20446;-84
2021/12/26 10:08:53;;;;;;;1.40;1.30;;;;;;;;;;5029192;28;20867;-84
2021/12/26 10:11:20;;;;;;;1.60;1.50;;;;;;;;;;5031750;28;21014;-84
2021/12/26 10:13:51;;;;;;;3.37;2.90;;;;;;;;;;5030271;28;20434;-84
2021/12/26 10:16:18;;;;;;;1.43;1.33;;;;;;;;;;5022707;28;20955;-84
2021/12/26 10:18:44;;;;;;;1.17;1.07;;;;;;;;;;5019834;28;21064;-84
2021/12/26 10:21:27;;;;;;;1.40;1.30;;;;;;;;;;5021069;28;20462;-84
2021/12/26 10:23:54;;;;;;;1.40;1.30;;;;;;;;;;5026048;28;20942;-83
2021/12/26 10:26:21;;;;;;;1.10;1.00;;;;;;;;;;5026529;28;20450;-84
2021/12/26 10:29:05;;;;;;;2.30;2.20;;;;;;;;;;5027027;28;20438;-84
2021/12/26 10:31:31;;;;;;;1.27;1.17;;;;;;;;;;5025591;28;20552;-85
2021/12/26 10:33:57;;;;;;;1.13;1.03;;;;;;;;;;5029523;28;20446;-85
2021/12/26 10:36:24;;;;;;;0.80;0.80;;;;;;;;;;5023589;28;20438;-85
2021/12/26 10:39:08;;;;;;;1.30;1.20;;;;;;;;;;5028953;28;20454;-85
2021/12/26 10:41:39;;;;;;;1.07;0.97;;;;;;;;;;5027131;28;20446;-84
2021/12/26 10:44:05;;;;;;;1.17;1.07;;;;;;;;;;5032393;28;20525;-84
2021/12/26 10:46:35;;;;;;;1.00;0.90;;;;;;;;;;5030179;28;20516;-86
2021/12/26 10:49:20;;;;;;;1.37;1.27;;;;;;;;;;5031532;28;20440;-85
2021/12/26 10:51:45;;;;;;;1.00;0.90;;;;;;;;;;5027548;28;20909;-86
2021/12/26 10:54:32;;;;;;;1.30;1.20;;;;;;;;;;5031159;28;20549;-87
2021/12/26 10:57:21;;;;;;;1.20;1.10;;;;;;;;;;5029623;28;20797;-87
2021/12/26 10:59:57;;;;;;;0.80;0.80;;;;;;;;;;5010836;28;20830;-88
2021/12/26 11:02:25;;;;;;;1.20;1.10;;;;;;;;;;5040745;28;21096;-88
2021/12/26 11:04:58;;;;;;;1.20;1.10;;;;;;;;;;5024416;28;20466;-86
2021/12/26 11:07:24;;;;;;;1.07;0.97;;;;;;;;;;5020765;28;20449;-89
2021/12/26 11:10:01;;;;;;;1.30;1.20;;;;;;;;;;5022883;28;20430;-89
2021/12/26 11:12:47;;;;;;;2.17;2.00;;;;;;;;;;5025728;28;20568;-90
2021/12/26 11:15:14;;;;;;;1.03;0.93;;;;;;;;;;5021825;28;21210;-89
2021/12/26 11:18:30;;;;;;;1.10;0.90;;;;;;;;;;5023890;28;20532;-90
2021/12/26 11:21:06;;;;;;;1.07;0.97;;;;;;;;;;5000255;28;20846;-89
2021/12/26 11:23:49;;;;;;;0.83;0.83;;;;;;;;;;5020634;28;20723;-92
2021/12/26 11:26:49;;;;;;;0.80;0.80;;;;;;;;;;5028850;28;20529;-91
2021/12/26 11:29:15;;;;;;;1.10;1.00;;;;;;;;;;5027421;28;20578;-93
2021/12/26 11:31:43;;;;;;;2.00;1.90;;;;;;;;;;5028320;28;20572;-93
2021/12/26 11:34:09;;;;;;;2.27;2.17;;;;;;;;;;5026568;28;20503;-93
2021/12/26 11:36:37;;;;;;;1.10;1.00;;;;;;;;;;5036496;28;20451;-92
2021/12/26 11:39:06;;;;;;;1.10;1.00;;;;;;;;;;5027272;28;20438;-91
2021/12/26 11:41:34;;;;;;;1.00;0.90;;;;;;;;;;5027159;28;20518;-92
2021/12/26 11:44:28;;;;;;;1.10;1.00;;;;;;;;;;5025920;28;20844;-94
2021/12/26 11:47:13;;;;;;;1.33;1.23;;;;;;;;;;5028091;28;20493;-93
2021/12/26 11:50:01;;;;;;;1.00;0.90;;;;;;;;;;5033306;28;20427;-93
2021/12/26 11:52:37;;;;;;;0.90;0.80;;;;;;;;;;5017156;28;20487;-92
2021/12/26 11:55:10;;;;;;;1.53;1.43;;;;;;;;;;5033475;28;20430;-91
2021/12/26 11:57:41;;;;;;;1.23;1.13;;;;;;;;;;5035848;28;20468;-93
2021/12/26 12:00:10;;;;;;;1.00;0.90;;;;;;;;;;5035191;28;20422;-93
2021/12/26 12:02:38;;;;;;;0.80;0.70;;;;;;;;;;5032950;28;20450;-93
2021/12/26 12:05:12;;;;;;;1.10;1.00;;;;;;;;;;5034240;28;20434;-94
2021/12/26 12:07:45;;;;;;;0.87;0.73;;;;;;;;;;5033775;28;20494;-92
2021/12/26 12:10:34;;;;;;;1.00;0.90;;;;;;;;;;5027090;28;20431;-93
2021/12/26 12:13:00;;;;;;;0.90;0.80;;;;;;;;;;4988546;28;20867;-94
2021/12/26 12:15:40;;;;;;;0.87;0.70;;;;;;;;;;5032553;28;20438;-91
2021/12/26 12:18:11;;;;;;;0.90;0.80;;;;;;;;;;5039476;28;20451;-92
2021/12/26 12:20:37;;;;;;;0.90;0.80;;;;;;;;;;5032510;28;20434;-91
2021/12/26 12:23:03;;;;;;;1.20;1.10;;;;;;;;;;5025304;28;21018;-91
2021/12/26 12:25:35;;;;;;;1.20;1.10;;;;;;;;;;5037914;28;20462;-91
2021/12/26 12:28:10;;;;;;;2.90;2.70;;;;;;;;;;5031132;28;20188;-92
2021/12/26 12:30:37;;;;;;;0.90;0.80;;;;;;;;;;5028847;28;20464;-90
2021/12/26 12:33:25;;;;;;;1.00;0.80;;;;;;;;;;5027433;28;20506;-90
2021/12/26 12:35:53;;;;;;;0.90;0.70;;;3.10;99.90;;;;;;5028321;28;20923;-90
2021/12/26 12:38:30;;;;;;;1.00;0.90;;;;;;;;;;5024975;28;20446;-91
2021/12/26 12:40:56;;;;;;;1.00;0.90;;;;;;;;;;5029208;28;20434;-91
2021/12/26 12:43:24;;;;;;;0.87;0.60;;;;;;;;;;5038207;28;20446;-91
2021/12/26 12:45:57;;;;;;;0.90;0.60;;;;;;;;;;5028420;28;20945;-91
2021/12/26 12:48:23;;;;;;;1.20;1.10;;;;;;;;;;5028447;28;20486;-90
2021/12/26 12:50:49;;;;;;;0.90;0.60;;;;;;;;;;5027794;28;20450;-89
2021/12/26 12:53:35;;;;;;;0.90;0.60;;;;;;;;;;5029842;28;20442;-88
2021/12/26 12:56:01;;;;;;;0.87;0.70;;;;;;;;;;5033799;28;20426;-90
2021/12/26 12:58:31;;;;;;;0.90;0.70;;;;;;;;;;5025483;28;21048;-89
2021/12/26 13:00:57;;;;;;;2.90;1.63;;;;;;;;;;5020372;28;20430;-89
2021/12/26 13:03:23;;;;;;;0.90;0.70;;;;;;;;;;5026983;28;20438;-89
2021/12/26 13:05:50;;;;;;;3.17;1.40;;;;;;;;;;5022569;28;20450;-90
2021/12/26 13:08:18;;;;;;;0.90;0.60;;;;;;;;;;5028742;28;20926;-91
2021/12/26 13:10:49;;;;;;;0.90;0.60;;;;;;;;;;5022836;28;20447;-91
2021/12/26 13:13:20;;;;;;;0.87;0.50;;;;;;;;;;5026525;28;20461;-87
2021/12/26 13:15:52;;;;;;;1.33;1.23;;;;;;;;;;5021165;28;20468;-86
2021/12/26 13:18:19;;;;;;;0.90;0.60;;;;;;;;;;5024797;28;20510;-87
2021/12/26 13:20:48;;;;;;;0.90;0.70;;;;;;;;;;5026323;28;21005;-87
2021/12/26 13:23:14;;;;;;;0.90;0.60;;;;;;;;;;5026467;28;20438;-88
2021/12/26 13:25:42;;;;;;;1.53;1.43;;;5.40;99.90;;;;;;5025565;28;20468;-88
2021/12/26 13:28:08;;;;;;;0.87;0.50;;;5.70;99.90;;;;;;5026081;28;20434;-87
2021/12/26 13:30:34;;;;;;;1.53;0.80;;;5.70;99.90;;;;;;5027433;28;20490;-86
2021/12/26 13:32:59;;;;;;;1.00;0.80;;;5.60;99.90;;;;;;5023539;28;20231;-86
2021/12/26 13:35:33;;;;;;;0.93;0.70;;;5.30;99.90;;;;;;5032748;28;20445;-86
2021/12/26 13:38:00;;;;;;;1.57;1.33;;;4.00;99.90;;;;;;5017574;28;20199;-87
2021/12/26 13:40:26;;;;;;;0.90;0.70;;;4.00;99.90;;;;;;5025552;28;20453;-86
2021/12/26 13:42:52;;;;;;;0.90;0.60;;;3.70;99.90;;;;;;5020577;28;20485;-85
2021/12/26 13:45:32;;;;;;;1.37;1.07;;;2.90;99.90;;;;;;5023984;28;20243;-87
2021/12/26 13:47:58;;;;;;;1.90;1.80;;;2.00;99.90;;;;;;5026340;28;20443;-88
2021/12/26 13:50:23;;;;;;;1.00;0.90;;;1.50;99.90;;;;;;5023410;28;20441;-88
2021/12/26 13:53:18;;;;;;;0.90;0.80;;;0.90;99.90;;;;;;5025931;28;20478;-88
2021/12/26 13:55:44;;;;;;;1.47;1.37;;;0.40;99.90;;;;;;5008436;28;20227;-87
2021/12/26 13:58:13;;;;;;;1.00;0.90;;;0.00;99.90;;;;;;5028069;28;20450;-87
2021/12/26 14:00:52;;;;;;;0.90;0.80;;;-0.40;99.90;;;;;;5021803;28;20567;-87
2021/12/26 14:03:18;;;;;;;1.00;0.90;;;-0.60;99.90;;;;;;5021424;28;20533;-87
2021/12/26 14:05:53;;;;;;;1.27;1.17;;;-0.70;99.90;;;;;;5022077;28;20509;-87
2021/12/26 14:08:27;;;;;;;1.10;1.00;;;-0.60;99.90;;;;;;5022425;28;20191;-88
2021/12/26 14:11:05;;;;;;;0.83;0.80;;;-1.10;99.90;;;;;;5038266;28;20537;-87
2021/12/26 14:13:42;;;;;;;1.07;0.97;;;-1.20;99.90;;;;;;5026690;28;20454;-88
2021/12/26 14:16:09;;;;;;;1.70;1.60;;;-1.50;99.90;;;;;;5030561;28;20449;-88
2021/12/26 14:18:37;;;;;;;1.07;0.97;;;-1.70;99.90;;;;;;5032245;28;20434;-88
2021/12/26 14:21:15;;;;;;;1.57;1.47;;;-1.70;99.90;;;;;;5028842;28;20470;-87
2021/12/26 14:23:44;;;;;;;2.47;1.60;;;-1.70;99.90;;;;;;5031670;28;20525;-87
2021/12/26 14:26:13;;;;;;;1.00;0.90;;;-1.80;99.90;;;;;;5030753;28;20464;-87
2021/12/26 14:28:50;;;;;;;1.57;1.47;;;-2.00;99.90;;;;;;5027028;28;20521;-87
2021/12/26 14:31:34;;;;;;;2.57;2.37;;;-2.10;99.90;;;;;;5028666;28;20465;-86
2021/12/26 14:34:02;;;;;;;1.03;0.93;;;-1.90;99.90;;;;;;5031502;28;20477;-87
2021/12/26 14:36:28;;;;;;;3.50;2.17;;;-1.80;99.90;;;;;;5028647;28;20562;-87
2021/12/26 14:39:00;;;;;;;1.30;1.20;;;-2.00;99.90;;;;;;5031234;28;20442;-86
2021/12/26 14:41:37;;;;;;;1.20;1.10;;;-2.20;99.90;;;;;;5039527;28;20442;-87
2021/12/26 14:44:20;;;;;;;1.30;1.20;;;-1.90;99.90;;;;;;5029573;28;20441;-86
2021/12/26 14:46:52;;;;;;;1.10;1.00;;;-2.10;99.90;;;;;;5026772;28;20429;-87